sensor_id;sensor_type;location;lat;lon;timestamp;pressure;altitude;pressure_sealevel;temperature;humidity
62948;BME280;51940;52.126;-0.994;2023-02-19T00:01:34;101091.05;;;7.99;100.00
62948;BME280;51940;52.126;-0.994;2023-02-19T00:04:06;101096.38;;;8.00;100.00
62948;BME280;51940;52.126;-0.994;2023-02-19T00:06:33;101098.51;;;8.02;100.00
62948;BME280;51940;52.126;-0.994;2023-02-19T00:08:59;101102.95;;;8.05;100.00
62948;BME280;51940;52.126;-0.994;2023-02-19T00:11:28;101100.81;;;8.06;100.00
62948;BME280;51940;52.126;-0.994;2023-02-19T00:13:55;101107.20;;;8.08;100.00
62948;BME280;51940;52.126;-0.994;2023-02-19T00:16:27;101108.61;;;8.10;100.00
62948;BME280;51940;52.126;-0.994;2023-02-19T00:18:54;101109.15;;;8.12;100.00
62948;BME280;51940;52.126;-0.994;2023-02-19T00:21:20;101107.38;;;8.13;100.00
62948;BME280;51940;52.126;-0.994;2023-02-19T00:23:50;101106.48;;;8.14;100.00
62948;BME280;51940;52.126;-0.994;2023-02-19T00:26:17;101108.79;;;8.14;100.00
62948;BME280;51940;52.126;-0.994;2023-02-19T00:28:43;101109.50;;;8.12;100.00
62948;BME280;51940;52.126;-0.994;2023-02-19T00:33:40;101129.07;;;8.06;100.00
62948;BME280;51940;52.126;-0.994;2023-02-19T00:36:05;101129.77;;;8.02;100.00
62948;BME280;51940;52.126;-0.994;2023-02-19T00:38:35;101134.40;;;7.98;100.00
62948;BME280;51940;52.126;-0.994;2023-02-19T00:41:02;101136.55;;;7.92;100.00
62948;BME280;51940;52.126;-0.994;2023-02-19T00:46:09;101138.15;;;7.81;100.00
62948;BME280;51940;52.126;-0.994;2023-02-19T00:48:34;101135.14;;;7.76;100.00
62948;BME280;51940;52.126;-0.994;2023-02-19T00:51:00;101142.60;;;7.71;100.00
62948;BME280;51940;52.126;-0.994;2023-02-19T00:53:25;101136.56;;;7.66;100.00
62948;BME280;51940;52.126;-0.994;2023-02-19T00:55:50;101137.10;;;7.60;100.00
62948;BME280;51940;52.126;-0.994;2023-02-19T00:58:17;101145.98;;;7.56;100.00
62948;BME280;51940;52.126;-0.994;2023-02-19T01:00:42;101148.98;;;7.52;100.00
62948;BME280;51940;52.126;-0.994;2023-02-19T01:03:08;101146.67;;;7.48;100.00
62948;BME280;51940;52.126;-0.994;2023-02-19T01:05:33;101148.80;;;7.44;100.00
62948;BME280;51940;52.126;-0.994;2023-02-19T01:07:58;101156.61;;;7.40;100.00
62948;BME280;51940;52.126;-0.994;2023-02-19T01:10:24;101158.20;;;7.35;100.00
62948;BME280;51940;52.126;-0.994;2023-02-19T01:12:49;101157.13;;;7.29;100.00
62948;BME280;51940;52.126;-0.994;2023-02-19T01:15:15;101161.73;;;7.25;100.00
62948;BME280;51940;52.126;-0.994;2023-02-19T01:17:40;101163.15;;;7.22;100.00
62948;BME280;51940;52.126;-0.994;2023-02-19T01:20:05;101168.48;;;7.19;100.00
62948;BME280;51940;52.126;-0.994;2023-02-19T01:22:32;101170.40;;;7.17;100.00
62948;BME280;51940;52.126;-0.994;2023-02-19T01:24:58;101172.70;;;7.15;100.00
62948;BME280;51940;52.126;-0.994;2023-02-19T01:27:23;101167.55;;;7.15;100.00
62948;BME280;51940;52.126;-0.994;2023-02-19T01:29:50;101173.95;;;7.16;100.00
62948;BME280;51940;52.126;-0.994;2023-02-19T01:32:15;101172.70;;;7.16;100.00
62948;BME280;51940;52.126;-0.994;2023-02-19T01:34:40;101175.02;;;7.16;100.00
62948;BME280;51940;52.126;-0.994;2023-02-19T01:37:07;101176.25;;;7.16;100.00
62948;BME280;51940;52.126;-0.994;2023-02-19T01:39:37;101171.11;;;7.17;100.00
62948;BME280;51940;52.126;-0.994;2023-02-19T01:42:04;101170.08;;;7.20;100.00
62948;BME280;51940;52.126;-0.994;2023-02-19T01:46:55;101167.08;;;7.27;100.00
62948;BME280;51940;52.126;-0.994;2023-02-19T01:49:31;101166.00;;;7.30;100.00
62948;BME280;51940;52.126;-0.994;2023-02-19T01:54:36;101169.02;;;7.32;100.00
62948;BME280;51940;52.126;-0.994;2023-02-19T01:57:07;101171.31;;;7.33;100.00
62948;BME280;51940;52.126;-0.994;2023-02-19T01:59:34;101180.38;;;7.34;100.00
62948;BME280;51940;52.126;-0.994;2023-02-19T02:01:59;101184.29;;;7.39;100.00
62948;BME280;51940;52.126;-0.994;2023-02-19T02:04:26;101189.98;;;7.43;100.00
62948;BME280;51940;52.126;-0.994;2023-02-19T02:06:55;101190.35;;;7.46;100.00
62948;BME280;51940;52.126;-0.994;2023-02-19T02:09:25;101185.20;;;7.46;100.00
62948;BME280;51940;52.126;-0.994;2023-02-19T02:12:10;101189.98;;;7.45;100.00
62948;BME280;51940;52.126;-0.994;2023-02-19T02:14:42;101194.07;;;7.44;100.00
62948;BME280;51940;52.126;-0.994;2023-02-19T02:20:00;101208.96;;;7.40;100.00
62948;BME280;51940;52.126;-0.994;2023-02-19T02:22:33;101211.09;;;7.39;100.00
62948;BME280;51940;52.126;-0.994;2023-02-19T02:27:53;101225.45;;;7.32;100.00
62948;BME280;51940;52.126;-0.994;2023-02-19T02:31:03;101234.50;;;7.28;100.00
62948;BME280;51940;52.126;-0.994;2023-02-19T02:33:36;101232.16;;;7.22;100.00
62948;BME280;51940;52.126;-0.994;2023-02-19T02:36:18;101231.79;;;7.16;100.00
62948;BME280;51940;52.126;-0.994;2023-02-19T02:38:45;101234.80;;;7.12;100.00
62948;BME280;51940;52.126;-0.994;2023-02-19T02:41:14;101236.92;;;7.12;100.00
62948;BME280;51940;52.126;-0.994;2023-02-19T02:43:40;101236.39;;;7.12;100.00
62948;BME280;51940;52.126;-0.994;2023-02-19T02:46:05;101241.72;;;7.13;100.00
62948;BME280;51940;52.126;-0.994;2023-02-19T02:51:08;101238.52;;;7.16;100.00
62948;BME280;51940;52.126;-0.994;2023-02-19T02:53:43;101241.02;;;7.19;100.00
62948;BME280;51940;52.126;-0.994;2023-02-19T02:58:57;101236.62;;;7.26;100.00
62948;BME280;51940;52.126;-0.994;2023-02-19T03:01:31;101246.73;;;7.28;100.00
62948;BME280;51940;52.126;-0.994;2023-02-19T03:06:51;101253.69;;;7.36;100.00
62948;BME280;51940;52.126;-0.994;2023-02-19T03:09:29;101257.41;;;7.38;100.00
62948;BME280;51940;52.126;-0.994;2023-02-19T03:12:10;101257.77;;;7.40;100.00
62948;BME280;51940;52.126;-0.994;2023-02-19T03:14:59;101255.82;;;7.43;100.00
62948;BME280;51940;52.126;-0.994;2023-02-19T03:17:51;101265.42;;;7.47;100.00
62948;BME280;51940;52.126;-0.994;2023-02-19T03:20:39;101270.73;;;7.49;100.00
62948;BME280;51940;52.126;-0.994;2023-02-19T03:23:08;101268.08;;;7.51;100.00
62948;BME280;51940;52.126;-0.994;2023-02-19T03:25:36;101270.58;;;7.52;100.00
62948;BME280;51940;52.126;-0.994;2023-02-19T03:28:23;101274.13;;;7.52;100.00
62948;BME280;51940;52.126;-0.994;2023-02-19T03:31:14;101280.00;;;7.53;100.00
62948;BME280;51940;52.126;-0.994;2023-02-19T03:33:42;101283.90;;;7.52;100.00
62948;BME280;51940;52.126;-0.994;2023-02-19T03:36:11;101290.64;;;7.53;100.00
62948;BME280;51940;52.126;-0.994;2023-02-19T03:38:43;101289.04;;;7.53;100.00
62948;BME280;51940;52.126;-0.994;2023-02-19T03:55:15;101305.35;;;7.51;100.00
62948;BME280;51940;52.126;-0.994;2023-02-19T03:57:50;101312.28;;;7.50;100.00
62948;BME280;51940;52.126;-0.994;2023-02-19T04:03:04;101326.12;;;7.49;100.00
62948;BME280;51940;52.126;-0.994;2023-02-19T04:05:37;101326.65;;;7.49;100.00
62948;BME280;51940;52.126;-0.994;2023-02-19T04:08:09;101329.85;;;7.48;100.00
62948;BME280;51940;52.126;-0.994;2023-02-19T04:10:37;101339.44;;;7.49;100.00
62948;BME280;51940;52.126;-0.994;2023-02-19T04:13:34;101343.88;;;7.50;100.00
62948;BME280;51940;52.126;-0.994;2023-02-19T04:16:00;101350.80;;;7.50;100.00
62948;BME280;51940;52.126;-0.994;2023-02-19T04:18:30;101352.74;;;7.51;100.00
62948;BME280;51940;52.126;-0.994;2023-02-19T04:20:59;101355.06;;;7.52;100.00
62948;BME280;51940;52.126;-0.994;2023-02-19T04:23:27;101355.09;;;7.53;100.00
62948;BME280;51940;52.126;-0.994;2023-02-19T04:25:58;101358.64;;;7.54;100.00
62948;BME280;51940;52.126;-0.994;2023-02-19T04:28:24;101365.92;;;7.55;100.00
62948;BME280;51940;52.126;-0.994;2023-02-19T04:30:50;101368.94;;;7.55;100.00
62948;BME280;51940;52.126;-0.994;2023-02-19T04:33:15;101363.79;;;7.55;100.00
62948;BME280;51940;52.126;-0.994;2023-02-19T04:35:40;101361.65;;;7.57;100.00
62948;BME280;51940;52.126;-0.994;2023-02-19T04:38:06;101362.90;;;7.57;100.00
62948;BME280;51940;52.126;-0.994;2023-02-19T04:40:32;101362.20;;;7.57;100.00
62948;BME280;51940;52.126;-0.994;2023-02-19T04:42:57;101359.70;;;7.56;100.00
62948;BME280;51940;52.126;-0.994;2023-02-19T04:45:23;101359.70;;;7.55;100.00
62948;BME280;51940;52.126;-0.994;2023-02-19T04:47:48;101371.60;;;7.54;100.00
62948;BME280;51940;52.126;-0.994;2023-02-19T04:50:13;101376.56;;;7.53;100.00
62948;BME280;51940;52.126;-0.994;2023-02-19T04:52:39;101376.73;;;7.52;100.00
62948;BME280;51940;52.126;-0.994;2023-02-19T04:55:05;101378.13;;;7.51;100.00
62948;BME280;51940;52.126;-0.994;2023-02-19T04:57:31;101376.54;;;7.50;100.00
62948;BME280;51940;52.126;-0.994;2023-02-19T04:59:56;101374.93;;;7.50;100.00
62948;BME280;51940;52.126;-0.994;2023-02-19T05:02:22;101382.21;;;7.51;100.00
62948;BME280;51940;52.126;-0.994;2023-02-19T05:04:47;101387.36;;;7.51;100.00
62948;BME280;51940;52.126;-0.994;2023-02-19T05:07:13;101392.69;;;7.50;100.00
62948;BME280;51940;52.126;-0.994;2023-02-19T05:09:39;101400.14;;;7.49;100.00
62948;BME280;51940;52.126;-0.994;2023-02-19T05:12:04;101408.13;;;7.47;100.00
62948;BME280;51940;52.126;-0.994;2023-02-19T05:14:30;101421.96;;;7.46;100.00
62948;BME280;51940;52.126;-0.994;2023-02-19T05:16:55;101418.42;;;7.45;100.00
62948;BME280;51940;52.126;-0.994;2023-02-19T05:19:20;101415.91;;;7.43;100.00
62948;BME280;51940;52.126;-0.994;2023-02-19T05:21:46;101419.98;;;7.41;100.00
62948;BME280;51940;52.126;-0.994;2023-02-19T05:24:11;101426.89;;;7.38;100.00
62948;BME280;51940;52.126;-0.994;2023-02-19T05:26:37;101431.85;;;7.36;100.00
62948;BME280;51940;52.126;-0.994;2023-02-19T05:29:02;101434.84;;;7.34;100.00
62948;BME280;51940;52.126;-0.994;2023-02-19T05:31:27;101432.17;;;7.33;100.00
62948;BME280;51940;52.126;-0.994;2023-02-19T05:33:56;101439.98;;;7.33;100.00
62948;BME280;51940;52.126;-0.994;2023-02-19T05:36:22;101450.45;;;7.32;100.00
62948;BME280;51940;52.126;-0.994;2023-02-19T05:38:51;101453.65;;;7.32;100.00
62948;BME280;51940;52.126;-0.994;2023-02-19T05:41:20;101452.58;;;7.32;100.00
62948;BME280;51940;52.126;-0.994;2023-02-19T05:43:47;101450.45;;;7.31;100.00
62948;BME280;51940;52.126;-0.994;2023-02-19T05:46:16;101446.90;;;7.30;100.00
62948;BME280;51940;52.126;-0.994;2023-02-19T05:48:42;101453.64;;;7.28;100.00
62948;BME280;51940;52.126;-0.994;2023-02-19T05:51:11;101456.61;;;7.25;100.00
62948;BME280;51940;52.126;-0.994;2023-02-19T05:53:37;101458.73;;;7.24;100.00
62948;BME280;51940;52.126;-0.994;2023-02-19T05:56:04;101470.80;;;7.23;100.00
62948;BME280;51940;52.126;-0.994;2023-02-19T05:58:29;101480.20;;;7.22;100.00
62948;BME280;51940;52.126;-0.994;2023-02-19T06:00:55;101482.69;;;7.23;100.00
62948;BME280;51940;52.126;-0.994;2023-02-19T06:03:21;101484.29;;;7.22;100.00
62948;BME280;51940;52.126;-0.994;2023-02-19T06:05:47;101490.67;;;7.21;100.00
62948;BME280;51940;52.126;-0.994;2023-02-19T06:08:14;101495.27;;;7.19;100.00
62948;BME280;51940;52.126;-0.994;2023-02-19T06:10:40;101508.02;;;7.17;100.00
62948;BME280;51940;52.126;-0.994;2023-02-19T06:13:07;101512.44;;;7.16;100.00
62948;BME280;51940;52.126;-0.994;2023-02-19T06:15:33;101506.75;;;7.13;100.00
62948;BME280;51940;52.126;-0.994;2023-02-19T06:17:59;101501.56;;;7.09;100.00
62948;BME280;51940;52.126;-0.994;2023-02-19T06:20:25;101499.40;;;7.03;100.00
62948;BME280;51940;52.126;-0.994;2023-02-19T06:22:51;101505.55;;;6.97;100.00
62948;BME280;51940;52.126;-0.994;2023-02-19T06:25:17;101504.80;;;6.91;100.00
62948;BME280;51940;52.126;-0.994;2023-02-19T06:27:43;101506.17;;;6.86;100.00
62948;BME280;51940;52.126;-0.994;2023-02-19T06:30:09;101506.46;;;6.81;100.00
62948;BME280;51940;52.126;-0.994;2023-02-19T06:32:35;101512.46;;;6.75;100.00
62948;BME280;51940;52.126;-0.994;2023-02-19T06:35:00;101515.25;;;6.71;100.00
62948;BME280;51940;52.126;-0.994;2023-02-19T06:37:25;101512.04;;;6.68;100.00
62948;BME280;51940;52.126;-0.994;2023-02-19T06:39:52;101508.43;;;6.64;100.00
62948;BME280;51940;52.126;-0.994;2023-02-19T06:42:17;101514.09;;;6.60;100.00
62948;BME280;51940;52.126;-0.994;2023-02-19T06:44:43;101519.88;;;6.56;100.00
62948;BME280;51940;52.126;-0.994;2023-02-19T06:47:08;101527.65;;;6.53;100.00
62948;BME280;51940;52.126;-0.994;2023-02-19T06:49:33;101530.98;;;6.50;100.00
62948;BME280;51940;52.126;-0.994;2023-02-19T06:51:59;101535.39;;;6.48;100.00
62948;BME280;51940;52.126;-0.994;2023-02-19T06:54:26;101540.51;;;6.46;100.00
62948;BME280;51940;52.126;-0.994;2023-02-19T06:56:52;101551.48;;;6.45;100.00
62948;BME280;51940;52.126;-0.994;2023-02-19T06:59:17;101551.81;;;6.42;100.00
62948;BME280;51940;52.126;-0.994;2023-02-19T07:01:44;101548.95;;;6.41;100.00
62948;BME280;51940;52.126;-0.994;2023-02-19T07:04:09;101545.73;;;6.38;100.00
62948;BME280;51940;52.126;-0.994;2023-02-19T07:06:36;101549.95;;;6.35;100.00
62948;BME280;51940;52.126;-0.994;2023-02-19T07:09:03;101557.72;;;6.32;100.00
62948;BME280;51940;52.126;-0.994;2023-02-19T07:11:32;101567.23;;;6.29;100.00
62948;BME280;51940;52.126;-0.994;2023-02-19T07:13:59;101565.98;;;6.27;100.00
62948;BME280;51940;52.126;-0.994;2023-02-19T07:16:26;101560.83;;;6.26;100.00
62948;BME280;51940;52.126;-0.994;2023-02-19T07:18:51;101565.41;;;6.24;100.00
62948;BME280;51940;52.126;-0.994;2023-02-19T07:21:18;101573.35;;;6.21;100.00
62948;BME280;51940;52.126;-0.994;2023-02-19T07:23:44;101578.83;;;6.21;100.00
62948;BME280;51940;52.126;-0.994;2023-02-19T07:26:18;101589.80;;;6.20;100.00
62948;BME280;51940;52.126;-0.994;2023-02-19T07:28:51;101594.41;;;6.20;100.00
62948;BME280;51940;52.126;-0.994;2023-02-19T07:31:19;101594.24;;;6.21;100.00
62948;BME280;51940;52.126;-0.994;2023-02-19T07:33:46;101589.47;;;6.22;100.00
62948;BME280;51940;52.126;-0.994;2023-02-19T07:36:12;101592.50;;;6.23;100.00
62948;BME280;51940;52.126;-0.994;2023-02-19T07:38:38;101608.85;;;6.26;100.00
62948;BME280;51940;52.126;-0.994;2023-02-19T07:41:05;101615.77;;;6.27;100.00
62948;BME280;51940;52.126;-0.994;2023-02-19T07:43:34;101621.80;;;6.28;100.00
62948;BME280;51940;52.126;-0.994;2023-02-19T07:46:07;101631.73;;;6.29;100.00
62948;BME280;51940;52.126;-0.994;2023-02-19T07:48:38;101641.83;;;6.29;100.00
62948;BME280;51940;52.126;-0.994;2023-02-19T07:51:06;101646.78;;;6.28;100.00
62948;BME280;51940;52.126;-0.994;2023-02-19T07:53:33;101658.48;;;6.29;100.00
62948;BME280;51940;52.126;-0.994;2023-02-19T07:56:03;101671.06;;;6.29;100.00
62948;BME280;51940;52.126;-0.994;2023-02-19T07:58:29;101677.98;;;6.31;100.00
62948;BME280;51940;52.126;-0.994;2023-02-19T08:00:55;101690.75;;;6.32;100.00
62948;BME280;51940;52.126;-0.994;2023-02-19T08:03:20;101686.90;;;6.34;100.00
62948;BME280;51940;52.126;-0.994;2023-02-19T08:05:46;101676.30;;;6.35;100.00
62948;BME280;51940;52.126;-0.994;2023-02-19T08:08:14;101659.83;;;6.37;100.00
62948;BME280;51940;52.126;-0.994;2023-02-19T08:10:40;101656.81;;;6.36;100.00
62948;BME280;51940;52.126;-0.994;2023-02-19T08:13:26;101664.95;;;6.35;100.00
62948;BME280;51940;52.126;-0.994;2023-02-19T08:18:26;101656.07;;;6.33;100.00
62948;BME280;51940;52.126;-0.994;2023-02-19T08:20:53;101654.27;;;6.32;100.00
62948;BME280;51940;52.126;-0.994;2023-02-19T08:23:19;101667.00;;;6.31;100.00
62948;BME280;51940;52.126;-0.994;2023-02-19T08:25:48;101664.90;;;6.32;100.00
62948;BME280;51940;52.126;-0.994;2023-02-19T08:28:14;101653.95;;;6.33;100.00
62948;BME280;51940;52.126;-0.994;2023-02-19T08:30:41;101633.76;;;6.33;100.00
62948;BME280;51940;52.126;-0.994;2023-02-19T08:33:15;101624.38;;;6.35;100.00
62948;BME280;51940;52.126;-0.994;2023-02-19T08:38:14;101633.66;;;6.41;100.00
62948;BME280;51940;52.126;-0.994;2023-02-19T08:40:41;101630.70;;;6.46;100.00
62948;BME280;51940;52.126;-0.994;2023-02-19T08:43:09;101641.41;;;6.51;100.00
62948;BME280;51940;52.126;-0.994;2023-02-19T08:45:39;101648.39;;;6.57;100.00
62948;BME280;51940;52.126;-0.994;2023-02-19T08:48:05;101656.27;;;6.62;100.00
62948;BME280;51940;52.126;-0.994;2023-02-19T08:50:31;101667.52;;;6.69;100.00
62948;BME280;51940;52.126;-0.994;2023-02-19T08:53:03;101671.85;;;6.75;100.00
62948;BME280;51940;52.126;-0.994;2023-02-19T08:55:28;101675.98;;;6.81;100.00
62948;BME280;51940;52.126;-0.994;2023-02-19T08:57:54;101674.65;;;6.89;100.00
62948;BME280;51940;52.126;-0.994;2023-02-19T09:00:20;101682.02;;;6.97;100.00
62948;BME280;51940;52.126;-0.994;2023-02-19T09:02:47;101687.98;;;7.06;100.00
62948;BME280;51940;52.126;-0.994;2023-02-19T09:05:13;101687.04;;;7.17;100.00
62948;BME280;51940;52.126;-0.994;2023-02-19T09:07:39;101680.07;;;7.30;100.00
62948;BME280;51940;52.126;-0.994;2023-02-19T09:10:05;101672.38;;;7.42;100.00
62948;BME280;51940;52.126;-0.994;2023-02-19T09:12:33;101672.13;;;7.53;100.00
62948;BME280;51940;52.126;-0.994;2023-02-19T09:14:59;101682.33;;;7.63;100.00
62948;BME280;51940;52.126;-0.994;2023-02-19T09:17:25;101697.86;;;7.71;100.00
62948;BME280;51940;52.126;-0.994;2023-02-19T09:19:51;101710.67;;;7.76;100.00
62948;BME280;51940;52.126;-0.994;2023-02-19T09:22:16;101719.08;;;7.79;100.00
62948;BME280;51940;52.126;-0.994;2023-02-19T09:24:42;101724.58;;;7.80;100.00
62948;BME280;51940;52.126;-0.994;2023-02-19T09:27:08;101720.68;;;7.82;100.00
62948;BME280;51940;52.126;-0.994;2023-02-19T09:29:38;101722.64;;;7.83;100.00
62948;BME280;51940;52.126;-0.994;2023-02-19T09:32:04;101715.36;;;7.84;100.00
62948;BME280;51940;52.126;-0.994;2023-02-19T09:34:30;101710.93;;;7.84;100.00
62948;BME280;51940;52.126;-0.994;2023-02-19T09:36:55;101705.09;;;7.87;100.00
62948;BME280;51940;52.126;-0.994;2023-02-19T09:39:20;101700.52;;;7.92;100.00
62948;BME280;51940;52.126;-0.994;2023-02-19T09:41:57;101703.23;;;7.98;100.00
62948;BME280;51940;52.126;-0.994;2023-02-19T09:44:34;101709.87;;;8.07;100.00
62948;BME280;51940;52.126;-0.994;2023-02-19T09:47:00;101715.61;;;8.14;100.00
62948;BME280;51940;52.126;-0.994;2023-02-19T09:49:38;101713.48;;;8.17;100.00
62948;BME280;51940;52.126;-0.994;2023-02-19T09:52:13;101712.09;;;8.22;100.00
62948;BME280;51940;52.126;-0.994;2023-02-19T09:54:40;101719.79;;;8.28;100.00
62948;BME280;51940;52.126;-0.994;2023-02-19T09:57:13;101725.86;;;8.33;100.00
62948;BME280;51940;52.126;-0.994;2023-02-19T09:59:51;101725.89;;;8.35;100.00
62948;BME280;51940;52.126;-0.994;2023-02-19T10:02:20;101722.73;;;8.37;100.00
62948;BME280;51940;52.126;-0.994;2023-02-19T10:04:47;101721.14;;;8.38;100.00
62948;BME280;51940;52.126;-0.994;2023-02-19T10:07:21;101726.97;;;8.36;100.00
62948;BME280;51940;52.126;-0.994;2023-02-19T10:09:57;101726.04;;;8.31;100.00
62948;BME280;51940;52.126;-0.994;2023-02-19T10:12:27;101743.23;;;8.26;100.00
62948;BME280;51940;52.126;-0.994;2023-02-19T10:14:59;101748.37;;;8.22;100.00
62948;BME280;51940;52.126;-0.994;2023-02-19T10:17:29;101749.59;;;8.20;100.00
62948;BME280;51940;52.126;-0.994;2023-02-19T10:19:55;101751.89;;;8.20;100.00
62948;BME280;51940;52.126;-0.994;2023-02-19T10:22:21;101753.88;;;8.24;100.00
62948;BME280;51940;52.126;-0.994;2023-02-19T10:24:52;101754.33;;;8.34;100.00
62948;BME280;51940;52.126;-0.994;2023-02-19T10:27:18;101748.91;;;8.45;100.00
62948;BME280;51940;52.126;-0.994;2023-02-19T10:29:45;101751.61;;;8.53;100.00
62948;BME280;51940;52.126;-0.994;2023-02-19T10:32:23;101754.33;;;8.58;100.00
62948;BME280;51940;52.126;-0.994;2023-02-19T10:35:11;101756.15;;;8.68;100.00
62948;BME280;51940;52.126;-0.994;2023-02-19T10:37:45;101766.70;;;8.75;100.00
62948;BME280;51940;52.126;-0.994;2023-02-19T10:40:19;101765.63;;;8.75;100.00
62948;BME280;51940;52.126;-0.994;2023-02-19T10:42:47;101757.98;;;8.76;100.00
62948;BME280;51940;52.126;-0.994;2023-02-19T10:45:44;101759.61;;;8.82;100.00
62948;BME280;51940;52.126;-0.994;2023-02-19T10:48:27;101759.30;;;8.89;100.00
62948;BME280;51940;52.126;-0.994;2023-02-19T10:51:00;101763.73;;;8.88;100.00
62948;BME280;51940;52.126;-0.994;2023-02-19T10:54:15;101767.10;;;8.85;100.00
62948;BME280;51940;52.126;-0.994;2023-02-19T10:56:41;101764.41;;;8.81;100.00
62948;BME280;51940;52.126;-0.994;2023-02-19T10:59:22;101753.89;;;8.79;100.00
62948;BME280;51940;52.126;-0.994;2023-02-19T11:01:59;101751.61;;;8.82;100.00
62948;BME280;51940;52.126;-0.994;2023-02-19T11:04:27;101749.48;;;8.84;100.00
62948;BME280;51940;52.126;-0.994;2023-02-19T11:06:54;101749.30;;;8.87;100.00
62948;BME280;51940;52.126;-0.994;2023-02-19T11:09:36;101748.98;;;8.95;100.00
62948;BME280;51940;52.126;-0.994;2023-02-19T11:12:02;101747.64;;;9.14;100.00
62948;BME280;51940;52.126;-0.994;2023-02-19T11:14:31;101739.70;;;9.33;100.00
62948;BME280;51940;52.126;-0.994;2023-02-19T11:16:59;101738.67;;;9.53;100.00
62948;BME280;51940;52.126;-0.994;2023-02-19T11:19:34;101742.09;;;9.72;100.00
62948;BME280;51940;52.126;-0.994;2023-02-19T11:22:01;101749.40;;;9.89;100.00
62948;BME280;51940;52.126;-0.994;2023-02-19T11:24:32;101743.52;;;9.98;100.00
62948;BME280;51940;52.126;-0.994;2023-02-19T11:27:01;101743.88;;;10.03;100.00
62948;BME280;51940;52.126;-0.994;2023-02-19T11:29:28;101748.52;;;10.10;100.00
62948;BME280;51940;52.126;-0.994;2023-02-19T11:32:25;101750.46;;;10.19;100.00
62948;BME280;51940;52.126;-0.994;2023-02-19T11:35:12;101743.36;;;10.28;100.00
62948;BME280;51940;52.126;-0.994;2023-02-19T11:37:53;101744.95;;;10.37;100.00
62948;BME280;51940;52.126;-0.994;2023-02-19T11:40:25;101735.84;;;10.45;100.00
62948;BME280;51940;52.126;-0.994;2023-02-19T11:43:02;101737.09;;;10.51;100.00
62948;BME280;51940;52.126;-0.994;2023-02-19T11:45:37;101727.96;;;10.50;100.00
62948;BME280;51940;52.126;-0.994;2023-02-19T11:50:51;101727.25;;;10.57;100.00
62948;BME280;51940;52.126;-0.994;2023-02-19T11:53:27;101726.34;;;10.62;100.00
62948;BME280;51940;52.126;-0.994;2023-02-19T11:56:17;101723.15;;;10.61;100.00
62948;BME280;51940;52.126;-0.994;2023-02-19T12:09:41;101701.42;;;10.96;100.00
62948;BME280;51940;52.126;-0.994;2023-02-19T12:13:09;101689.06;;;11.00;100.00
62948;BME280;51940;52.126;-0.994;2023-02-19T12:15:38;101697.98;;;11.05;100.00
62948;BME280;51940;52.126;-0.994;2023-02-19T12:18:22;101687.40;;;11.13;100.00
62948;BME280;51940;52.126;-0.994;2023-02-19T12:26:55;101678.69;;;11.37;100.00
62948;BME280;51940;52.126;-0.994;2023-02-19T12:31:58;101668.34;;;11.32;100.00
62948;BME280;51940;52.126;-0.994;2023-02-19T12:37:22;101664.07;;;11.32;100.00
62948;BME280;51940;52.126;-0.994;2023-02-19T12:43:08;101661.67;;;11.41;100.00
62948;BME280;51940;52.126;-0.994;2023-02-19T12:45:51;101657.96;;;11.37;100.00
62948;BME280;51940;52.126;-0.994;2023-02-19T12:48:39;101663.72;;;11.30;100.00
62948;BME280;51940;52.126;-0.994;2023-02-19T12:54:00;101664.72;;;11.13;100.00
62948;BME280;51940;52.126;-0.994;2023-02-19T12:56:28;101663.02;;;10.98;100.00
62948;BME280;51940;52.126;-0.994;2023-02-19T12:59:07;101666.65;;;10.85;100.00
62948;BME280;51940;52.126;-0.994;2023-02-19T13:01:44;101668.48;;;10.75;100.00
62948;BME280;51940;52.126;-0.994;2023-02-19T13:04:14;101667.79;;;10.71;100.00
62948;BME280;51940;52.126;-0.994;2023-02-19T13:06:48;101664.58;;;10.71;100.00
62948;BME280;51940;52.126;-0.994;2023-02-19T13:09:19;101653.67;;;10.74;100.00
62948;BME280;51940;52.126;-0.994;2023-02-19T13:11:54;101648.48;;;10.77;100.00
62948;BME280;51940;52.126;-0.994;2023-02-19T13:17:25;101640.95;;;10.84;100.00
62948;BME280;51940;52.126;-0.994;2023-02-19T13:19:59;101639.88;;;10.89;100.00
62948;BME280;51940;52.126;-0.994;2023-02-19T13:22:33;101647.70;;;10.92;100.00
62948;BME280;51940;52.126;-0.994;2023-02-19T13:25:19;101645.55;;;10.95;100.00
62948;BME280;51940;52.126;-0.994;2023-02-19T13:31:07;101626.45;;;10.96;100.00
62948;BME280;51940;52.126;-0.994;2023-02-19T13:33:57;101617.88;;;10.96;100.00
62948;BME280;51940;52.126;-0.994;2023-02-19T13:36:28;101608.92;;;10.98;100.00
62948;BME280;51940;52.126;-0.994;2023-02-19T13:38:55;101611.23;;;11.00;100.00
62948;BME280;51940;52.126;-0.994;2023-02-19T13:41:30;101620.52;;;11.00;100.00
62948;BME280;51940;52.126;-0.994;2023-02-19T13:44:05;101612.12;;;11.00;100.00
62948;BME280;51940;52.126;-0.994;2023-02-19T13:46:38;101600.69;;;11.02;100.00
62948;BME280;51940;52.126;-0.994;2023-02-19T13:51:52;101623.52;;;11.06;100.00
62948;BME280;51940;52.126;-0.994;2023-02-19T13:54:29;101632.97;;;11.07;100.00
62948;BME280;51940;52.126;-0.994;2023-02-19T13:59:43;101630.48;;;11.06;100.00
62948;BME280;51940;52.126;-0.994;2023-02-19T14:09:49;101628.02;;;11.03;100.00
62948;BME280;51940;52.126;-0.994;2023-02-19T14:31:12;101618.33;;;11.07;100.00
62948;BME280;51940;52.126;-0.994;2023-02-19T14:33:55;101614.42;;;11.06;100.00
62948;BME280;51940;52.126;-0.994;2023-02-19T14:39:10;101613.88;;;11.06;100.00
62948;BME280;51940;52.126;-0.994;2023-02-19T14:41:39;101606.38;;;11.07;100.00
62948;BME280;51940;52.126;-0.994;2023-02-19T14:44:16;101603.70;;;11.06;100.00
62948;BME280;51940;52.126;-0.994;2023-02-19T14:46:51;101599.97;;;11.05;100.00
62948;BME280;51940;52.126;-0.994;2023-02-19T14:49:24;101598.35;;;11.06;100.00
62948;BME280;51940;52.126;-0.994;2023-02-19T14:51:59;101589.95;;;11.06;100.00